Shark Bay Denham, Australia
Current Conditions -  °F | °C
As of 11:00 PM on Monday 22 Dec 2014 (Local Time) from YCAR Reporting Station
Clear Clear  
Wind Chill: 77°   Ceiling: Unl
Heat Index: 79°   Visibility: 6mi
Dew Point: 64°   Wind: 22mph
Humidity: 65%   Direction: 170°S
Pressure: 29.77"   Gusts: NA
Location:  25.88°S, 113.56°E
Report Text: YCAR 221500Z AUTO 17019KT 9999 // NCD 25/18 Q1008
Loading
Personal Weather Stations






























Interactive Weather Map New forecast layout! Learn more

10-Day Weather Forecast

Advertisements
Track Severe Weather on mobile